PWSweather.com
Personal Weather Stations
Station Observations
WATERF01
WaterfordIE

WaterfordIE

Lat: 52.2412507, Lon: -7.1414691

Elevation: 65

Station Type: Davis Vantage Vue

www.waterfordweather.com

High Low Average
Temperature 68.6°F20.3°C 51.9°F11.1°C 58.6°F14.8°C
Dew Point 52.8°F11.6°C 45.7°F7.6°C 49.0°F9.4°C
Winds 9.2 mph 14.8 kmh Calm Calm 3.0 mph W4.8 kmh W
Wind Gusts 15.0 mph24.1 kmh -- 6.0 mph9.7 kmh
Humidity 88% 48% 72%
Pressure 30.14 in1020.7 mb 29.96 in1014.6 mb -
Precipitation 0.05 in1.3 mm - -
Hour Temp Dew Point Humidity Winds Wind Gusts Pressure Precip Precip Rate Daily Precip Total
12:00 AM 53.9°F12.2°C 48.2°F9.0°C 81% Calm Calm -- 30.00 in1015.9 mb - 0.00 in0.0 mm 0.00 in0.0 mm
12:10 AM 53.9°F12.2°C 48.2°F9.0°C 81% Calm Calm -- 30.00 in1015.9 mb - 0.00 in0.0 mm 0.00 in0.0 mm
12:20 AM 53.5°F11.9°C 48.1°F8.9°C 82% Calm Calm -- 30.00 in1015.9 mb - 0.00 in0.0 mm 0.00 in0.0 mm
12:30 AM 53.3°F11.8°C 48.3°F9.1°C 83% Calm Calm -- 30.00 in1015.9 mb - 0.00 in0.0 mm 0.00 in0.0 mm
12:40 AM 53.2°F11.8°C 48.2°F9.0°C 83% Calm Calm -- 30.00 in1015.9 mb - 0.00 in0.0 mm 0.00 in0.0 mm
12:50 AM 53.1°F11.7°C 48.4°F9.1°C 84% Calm Calm -- 30.00 in1015.9 mb - 0.00 in0.0 mm 0.00 in0.0 mm
01:00 AM 52.9°F11.6°C 48.2°F9.0°C 84% Calm Calm -- 30.00 in1015.9 mb - 0.00 in0.0 mm 0.00 in0.0 mm
01:10 AM 52.7°F11.5°C 48.3°F9.1°C 85% Calm Calm -- 29.99 in1015.6 mb - 0.00 in0.0 mm 0.00 in0.0 mm
01:20 AM 52.7°F11.5°C 48.3°F9.1°C 85% Calm Calm -- 29.99 in1015.6 mb - 0.00 in0.0 mm 0.00 in0.0 mm
01:30 AM 52.7°F11.5°C 48.3°F9.1°C 85% Calm Calm -- 29.99 in1015.6 mb - 0.00 in0.0 mm 0.00 in0.0 mm
01:40 AM 52.7°F11.5°C 48.0°F8.9°C 84% Calm Calm -- 29.99 in1015.6 mb - 0.00 in0.0 mm 0.00 in0.0 mm
01:50 AM 52.9°F11.6°C 48.2°F9.0°C 84% Calm Calm -- 29.99 in1015.6 mb - 0.00 in0.0 mm 0.00 in0.0 mm
02:00 AM 53.1°F11.7°C 48.4°F9.1°C 84% Calm Calm -- 29.98 in1015.2 mb - 0.00 in0.0 mm 0.00 in0.0 mm
02:10 AM 53.2°F11.8°C 48.5°F9.2°C 84% Calm Calm -- 29.98 in1015.2 mb - 0.00 in0.0 mm 0.00 in0.0 mm
02:20 AM 53.7°F12.1°C 48.3°F9.1°C 82% Calm Calm -- 29.98 in1015.2 mb - 0.00 in0.0 mm 0.00 in0.0 mm
02:30 AM 53.8°F12.1°C 48.4°F9.1°C 82% Calm Calm -- 29.98 in1015.2 mb - 0.00 in0.0 mm 0.00 in0.0 mm
02:40 AM 53.8°F12.1°C 48.4°F9.1°C 82% Calm Calm -- 29.98 in1015.2 mb - 0.00 in0.0 mm 0.00 in0.0 mm
02:50 AM 53.6°F12.0°C 48.6°F9.2°C 83% Calm Calm -- 29.98 in1015.2 mb - 0.00 in0.0 mm 0.00 in0.0 mm
03:00 AM 53.4°F11.9°C 48.7°F9.3°C 84% Calm Calm -- 29.98 in1015.2 mb - 0.01 in0.3 mm 0.01 in0.3 mm
03:10 AM 53.3°F11.8°C 48.6°F9.2°C 84% Calm Calm -- 29.98 in1015.2 mb - 0.01 in0.3 mm 0.01 in0.3 mm
03:20 AM 53.1°F11.7°C 48.7°F9.3°C 85% Calm Calm -- 29.97 in1014.9 mb - 0.01 in0.3 mm 0.01 in0.3 mm
03:30 AM 53.1°F11.7°C 48.7°F9.3°C 85% Calm Calm -- 29.97 in1014.9 mb - 0.01 in0.3 mm 0.01 in0.3 mm
03:40 AM 53.1°F11.7°C 49.0°F9.4°C 86% Calm Calm -- 29.97 in1014.9 mb - 0.01 in0.3 mm 0.01 in0.3 mm
03:50 AM 53.0°F11.7°C 48.9°F9.4°C 86% Calm Calm -- 29.97 in1014.9 mb - 0.02 in0.5 mm 0.02 in0.5 mm
04:00 AM 52.8°F11.6°C 49.0°F9.4°C 87% 4.6 mph SW7.4 kmh SW 5.8 mph9.3 kmh 29.97 in1014.9 mb - 0.03 in0.8 mm 0.03 in0.8 mm
04:10 AM 52.6°F11.4°C 48.9°F9.4°C 87% Calm Calm -- 29.96 in1014.6 mb - 0.03 in0.8 mm 0.04 in1.0 mm
04:20 AM 52.7°F11.5°C 48.9°F9.4°C 87% 3.5 mph SW5.6 kmh SW 5.8 mph9.3 kmh 29.96 in1014.6 mb - 0.04 in1.0 mm 0.05 in1.3 mm
04:30 AM 52.5°F11.4°C 48.8°F9.3°C 87% Calm Calm -- 29.96 in1014.6 mb - 0.04 in1.0 mm 0.05 in1.3 mm
04:40 AM 52.4°F11.3°C 48.6°F9.2°C 87% Calm Calm -- 29.97 in1014.9 mb - 0.04 in1.0 mm 0.05 in1.3 mm
04:50 AM 52.2°F11.2°C 48.4°F9.1°C 87% Calm Calm -- 29.97 in1014.9 mb - 0.03 in0.8 mm 0.05 in1.3 mm
05:00 AM 51.9°F11.1°C 48.5°F9.2°C 88% Calm Calm -- 29.97 in1014.9 mb - 0.02 in0.5 mm 0.05 in1.3 mm
05:10 AM 51.9°F11.1°C 48.5°F9.2°C 88% Calm Calm -- 29.97 in1014.9 mb - 0.01 in0.3 mm 0.05 in1.3 mm
05:20 AM 52.0°F11.1°C 48.6°F9.2°C 88% 1.2 mph NNW1.9 kmh NNW 4.6 mph7.4 kmh 29.98 in1015.2 mb - 0.00 in0.0 mm 0.05 in1.3 mm
05:30 AM 51.9°F11.1°C 48.5°F9.2°C 88% 1.2 mph NNW1.9 kmh NNW 1.2 mph1.9 kmh 29.98 in1015.2 mb - 0.00 in0.0 mm 0.05 in1.3 mm
05:40 AM 51.9°F11.1°C 48.5°F9.2°C 88% Calm Calm -- 29.98 in1015.2 mb - 0.00 in0.0 mm 0.05 in1.3 mm
05:50 AM 52.1°F11.2°C 48.7°F9.3°C 88% Calm Calm -- 29.98 in1015.2 mb - 0.00 in0.0 mm 0.05 in1.3 mm
06:00 AM 52.5°F11.4°C 49.0°F9.4°C 88% Calm Calm -- 29.98 in1015.2 mb - 0.00 in0.0 mm 0.05 in1.3 mm
06:10 AM 53.2°F11.8°C 49.7°F9.8°C 88% Calm Calm -- 29.99 in1015.6 mb - 0.00 in0.0 mm 0.05 in1.3 mm
06:20 AM 53.6°F12.0°C 49.8°F9.9°C 87% 3.5 mph NW5.6 kmh NW 5.8 mph9.3 kmh 29.99 in1015.6 mb - 0.00 in0.0 mm 0.05 in1.3 mm
06:30 AM 53.8°F12.1°C 49.4°F9.7°C 85% 1.2 mph NW1.9 kmh NW 2.3 mph3.7 kmh 29.99 in1015.6 mb - 0.00 in0.0 mm 0.05 in1.3 mm
06:40 AM 54.0°F12.2°C 49.6°F9.8°C 85% 3.5 mph NNW5.6 kmh NNW 6.9 mph11.1 kmh 29.99 in1015.6 mb - 0.00 in0.0 mm 0.05 in1.3 mm
06:50 AM 54.2°F12.3°C 49.8°F9.9°C 85% Calm Calm 2.3 mph3.7 kmh 29.99 in1015.6 mb - 0.00 in0.0 mm 0.05 in1.3 mm
07:00 AM 54.3°F12.4°C 49.6°F9.8°C 84% Calm Calm 1.2 mph1.9 kmh 29.99 in1015.6 mb - 0.00 in0.0 mm 0.05 in1.3 mm
07:10 AM 54.8°F12.7°C 50.4°F10.2°C 85% Calm Calm -- 29.99 in1015.6 mb - 0.00 in0.0 mm 0.05 in1.3 mm
07:20 AM 55.3°F12.9°C 50.2°F10.1°C 83% Calm Calm -- 29.99 in1015.6 mb - 0.00 in0.0 mm 0.05 in1.3 mm
07:30 AM 55.5°F13.1°C 50.4°F10.2°C 83% Calm Calm 4.6 mph7.4 kmh 30.00 in1015.9 mb - 0.00 in0.0 mm 0.05 in1.3 mm
07:40 AM 55.3°F12.9°C 50.2°F10.1°C 83% Calm Calm -- 30.00 in1015.9 mb - 0.00 in0.0 mm 0.05 in1.3 mm
07:50 AM 56.5°F13.6°C 51.1°F10.6°C 82% 1.2 mph W1.9 kmh W -- 30.00 in1015.9 mb - 0.00 in0.0 mm 0.05 in1.3 mm
08:00 AM 56.7°F13.7°C 50.9°F10.5°C 81% 3.5 mph NW5.6 kmh NW 5.8 mph9.3 kmh 30.00 in1015.9 mb - 0.00 in0.0 mm 0.05 in1.3 mm
08:10 AM 56.9°F13.8°C 51.1°F10.6°C 81% 4.6 mph NW7.4 kmh NW 8.1 mph13.0 kmh 30.01 in1016.3 mb - 0.00 in0.0 mm 0.05 in1.3 mm
08:20 AM 56.8°F13.8°C 51.1°F10.6°C 81% 2.3 mph NNW3.7 kmh NNW 5.8 mph9.3 kmh 30.01 in1016.3 mb - 0.00 in0.0 mm 0.05 in1.3 mm
08:30 AM 56.9°F13.8°C 51.1°F10.6°C 81% 5.8 mph NNW9.3 kmh NNW 9.2 mph14.8 kmh 30.01 in1016.3 mb - 0.00 in0.0 mm 0.05 in1.3 mm
08:40 AM 57.5°F14.2°C 51.0°F10.6°C 79% 6.9 mph NNW11.1 kmh NNW 13.8 mph22.2 kmh 30.01 in1016.3 mb - 0.00 in0.0 mm 0.05 in1.3 mm
08:50 AM 57.1°F13.9°C 50.7°F10.4°C 79% 5.8 mph NW9.3 kmh NW 8.1 mph13.0 kmh 30.01 in1016.3 mb - 0.00 in0.0 mm 0.05 in1.3 mm
09:00 AM 57.0°F13.9°C 50.9°F10.5°C 80% 2.3 mph NW3.7 kmh NW 5.8 mph9.3 kmh 30.01 in1016.3 mb - 0.00 in0.0 mm 0.05 in1.3 mm
09:10 AM 57.3°F14.1°C 50.8°F10.4°C 79% 8.1 mph NW13.0 kmh NW 11.5 mph18.5 kmh 30.02 in1016.6 mb - 0.00 in0.0 mm 0.05 in1.3 mm
09:20 AM 58.6°F14.8°C 51.7°F10.9°C 78% 4.6 mph NW7.4 kmh NW 8.1 mph13.0 kmh 30.02 in1016.6 mb - 0.00 in0.0 mm 0.05 in1.3 mm
09:30 AM 58.5°F14.7°C 51.3°F10.7°C 77% 5.8 mph WNW9.3 kmh WNW 8.1 mph13.0 kmh 30.02 in1016.6 mb - 0.00 in0.0 mm 0.05 in1.3 mm
09:40 AM 59.2°F15.1°C 51.3°F10.7°C 75% 5.8 mph WNW9.3 kmh WNW 11.5 mph18.5 kmh 30.02 in1016.6 mb - 0.00 in0.0 mm 0.05 in1.3 mm
09:50 AM 59.4°F15.2°C 50.7°F10.4°C 73% 4.6 mph NW7.4 kmh NW 8.1 mph13.0 kmh 30.02 in1016.6 mb - 0.00 in0.0 mm 0.05 in1.3 mm
10:00 AM 59.8°F15.4°C 50.4°F10.2°C 71% 8.1 mph WNW13.0 kmh WNW 11.5 mph18.5 kmh 30.02 in1016.6 mb - 0.00 in0.0 mm 0.05 in1.3 mm
10:10 AM 60.0°F15.6°C 49.4°F9.7°C 68% 8.1 mph NNW13.0 kmh NNW 13.8 mph22.2 kmh 30.02 in1016.6 mb - 0.00 in0.0 mm 0.05 in1.3 mm
10:20 AM 60.1°F15.6°C 49.5°F9.7°C 68% 6.9 mph NW11.1 kmh NW 13.8 mph22.2 kmh 30.03 in1016.9 mb - 0.00 in0.0 mm 0.05 in1.3 mm
10:30 AM 60.6°F15.9°C 48.8°F9.3°C 65% 9.2 mph NW14.8 kmh NW 11.5 mph18.5 kmh 30.03 in1016.9 mb - 0.00 in0.0 mm 0.05 in1.3 mm
10:40 AM 61.3°F16.3°C 48.6°F9.2°C 63% 8.1 mph NW13.0 kmh NW 13.8 mph22.2 kmh 30.03 in1016.9 mb - 0.00 in0.0 mm 0.05 in1.3 mm
10:50 AM 61.3°F16.3°C 49.0°F9.4°C 64% 4.6 mph WNW7.4 kmh WNW 11.5 mph18.5 kmh 30.03 in1016.9 mb - 0.00 in0.0 mm 0.05 in1.3 mm
11:00 AM 61.8°F16.6°C 47.8°F8.8°C 60% 9.2 mph NW14.8 kmh NW 13.8 mph22.2 kmh 30.04 in1017.3 mb - 0.00 in0.0 mm 0.05 in1.3 mm
11:10 AM 61.4°F16.3°C 48.3°F9.1°C 62% 4.6 mph NW7.4 kmh NW 9.2 mph14.8 kmh 30.04 in1017.3 mb - 0.00 in0.0 mm 0.05 in1.3 mm
11:20 AM 61.6°F16.4°C 47.6°F8.7°C 60% 6.9 mph NW11.1 kmh NW 11.5 mph18.5 kmh 30.04 in1017.3 mb - 0.00 in0.0 mm 0.05 in1.3 mm
11:30 AM 62.4°F16.9°C 47.9°F8.8°C 59% 6.9 mph WNW11.1 kmh WNW 15.0 mph24.1 kmh 30.04 in1017.3 mb - 0.00 in0.0 mm 0.05 in1.3 mm
11:40 AM 61.8°F16.6°C 46.9°F8.3°C 58% 8.1 mph NW13.0 kmh NW 11.5 mph18.5 kmh 30.05 in1017.6 mb - 0.00 in0.0 mm 0.05 in1.3 mm
11:50 AM 61.9°F16.6°C 47.8°F8.8°C 60% 6.9 mph NNW11.1 kmh NNW 11.5 mph18.5 kmh 30.05 in1017.6 mb - 0.00 in0.0 mm 0.05 in1.3 mm
12:00 PM 62.7°F17.1°C 46.3°F7.9°C 55% 8.1 mph NW13.0 kmh NW 15.0 mph24.1 kmh 30.05 in1017.6 mb - 0.00 in0.0 mm 0.05 in1.3 mm
12:10 PM 62.6°F17.0°C 46.2°F7.9°C 55% 6.9 mph NW11.1 kmh NW 11.5 mph18.5 kmh 30.06 in1017.9 mb - 0.00 in0.0 mm 0.05 in1.3 mm
12:20 PM 63.7°F17.6°C 46.2°F7.9°C 53% 4.6 mph NW7.4 kmh NW 8.1 mph13.0 kmh 30.05 in1017.6 mb - 0.00 in0.0 mm 0.05 in1.3 mm
12:30 PM 63.7°F17.6°C 46.2°F7.9°C 53% 6.9 mph NW11.1 kmh NW 12.7 mph20.4 kmh 30.06 in1017.9 mb - 0.00 in0.0 mm 0.05 in1.3 mm
12:40 PM 63.8°F17.7°C 46.8°F8.2°C 54% 5.8 mph WNW9.3 kmh WNW 11.5 mph18.5 kmh 30.06 in1017.9 mb - 0.00 in0.0 mm 0.05 in1.3 mm
12:50 PM 63.5°F17.5°C 46.0°F7.8°C 53% 6.9 mph NNW11.1 kmh NNW 12.7 mph20.4 kmh 30.06 in1017.9 mb - 0.00 in0.0 mm 0.05 in1.3 mm
01:00 PM 63.3°F17.4°C 45.9°F7.7°C 53% 6.9 mph NW11.1 kmh NW 12.7 mph20.4 kmh 30.06 in1017.9 mb - 0.00 in0.0 mm 0.05 in1.3 mm
01:10 PM 63.1°F17.3°C 45.7°F7.6°C 53% 4.6 mph WNW7.4 kmh WNW 8.1 mph13.0 kmh 30.07 in1018.3 mb - 0.00 in0.0 mm 0.05 in1.3 mm
01:20 PM 63.5°F17.5°C 46.0°F7.8°C 53% 6.9 mph NW11.1 kmh NW 11.5 mph18.5 kmh 30.07 in1018.3 mb - 0.00 in0.0 mm 0.05 in1.3 mm
01:30 PM 63.9°F17.7°C 46.5°F8.1°C 53% 6.9 mph NW11.1 kmh NW 8.1 mph13.0 kmh 30.07 in1018.3 mb - 0.00 in0.0 mm 0.05 in1.3 mm
01:40 PM 64.5°F18.1°C 46.5°F8.1°C 52% 8.1 mph NW13.0 kmh NW 13.8 mph22.2 kmh 30.07 in1018.3 mb - 0.00 in0.0 mm 0.05 in1.3 mm
01:50 PM 64.6°F18.1°C 46.6°F8.1°C 52% 5.8 mph NW9.3 kmh NW 6.9 mph11.1 kmh 30.07 in1018.3 mb - 0.00 in0.0 mm 0.05 in1.3 mm
02:00 PM 65.1°F18.4°C 47.0°F8.3°C 52% 6.9 mph NW11.1 kmh NW 11.5 mph18.5 kmh 30.07 in1018.3 mb - 0.00 in0.0 mm 0.05 in1.3 mm
02:10 PM 65.6°F18.7°C 47.5°F8.6°C 52% 5.8 mph NW9.3 kmh NW 11.5 mph18.5 kmh 30.07 in1018.3 mb - 0.00 in0.0 mm 0.05 in1.3 mm
02:20 PM 65.5°F18.6°C 46.9°F8.3°C 51% 6.9 mph NW11.1 kmh NW 12.7 mph20.4 kmh 30.07 in1018.3 mb - 0.00 in0.0 mm 0.05 in1.3 mm
02:30 PM 65.2°F18.4°C 47.1°F8.4°C 52% 6.9 mph NNW11.1 kmh NNW 12.7 mph20.4 kmh 30.07 in1018.3 mb - 0.00 in0.0 mm 0.05 in1.3 mm
02:40 PM 64.9°F18.3°C 46.8°F8.2°C 52% 5.8 mph NNW9.3 kmh NNW 8.1 mph13.0 kmh 30.07 in1018.3 mb - 0.00 in0.0 mm 0.05 in1.3 mm
02:50 PM 64.7°F18.2°C 46.7°F8.2°C 52% 5.8 mph NNW9.3 kmh NNW 9.2 mph14.8 kmh 30.07 in1018.3 mb - 0.00 in0.0 mm 0.05 in1.3 mm
03:00 PM 64.6°F18.1°C 46.1°F7.8°C 51% 4.6 mph NW7.4 kmh NW 11.5 mph18.5 kmh 30.08 in1018.6 mb - 0.00 in0.0 mm 0.05 in1.3 mm
03:10 PM 65.8°F18.8°C 47.2°F8.4°C 51% 4.6 mph NW7.4 kmh NW 11.5 mph18.5 kmh 30.07 in1018.3 mb - 0.00 in0.0 mm 0.05 in1.3 mm
03:20 PM 66.1°F18.9°C 46.9°F8.3°C 50% 4.6 mph NW7.4 kmh NW 9.2 mph14.8 kmh 30.08 in1018.6 mb - 0.00 in0.0 mm 0.05 in1.3 mm
03:30 PM 66.8°F19.3°C 47.6°F8.7°C 50% 4.6 mph W7.4 kmh W 6.9 mph11.1 kmh 30.08 in1018.6 mb - 0.00 in0.0 mm 0.05 in1.3 mm
03:40 PM 67.2°F19.6°C 47.4°F8.6°C 49% 5.8 mph NW9.3 kmh NW 11.5 mph18.5 kmh 30.08 in1018.6 mb - 0.00 in0.0 mm 0.05 in1.3 mm
03:50 PM 66.3°F19.1°C 47.1°F8.4°C 50% 4.6 mph WNW7.4 kmh WNW 8.1 mph13.0 kmh 30.08 in1018.6 mb - 0.00 in0.0 mm 0.05 in1.3 mm
04:00 PM 66.4°F19.1°C 47.2°F8.4°C 50% 5.8 mph NW9.3 kmh NW 8.1 mph13.0 kmh 30.08 in1018.6 mb - 0.00 in0.0 mm 0.05 in1.3 mm
04:10 PM 67.1°F19.5°C 47.3°F8.5°C 49% 5.8 mph NW9.3 kmh NW 9.2 mph14.8 kmh 30.08 in1018.6 mb - 0.00 in0.0 mm 0.05 in1.3 mm
04:20 PM 67.6°F19.8°C 47.2°F8.4°C 48% 1.2 mph NW1.9 kmh NW 5.8 mph9.3 kmh 30.08 in1018.6 mb - 0.00 in0.0 mm 0.05 in1.3 mm
04:30 PM 67.3°F19.6°C 46.9°F8.3°C 48% 2.3 mph NW3.7 kmh NW 5.8 mph9.3 kmh 30.08 in1018.6 mb - 0.00 in0.0 mm 0.05 in1.3 mm
04:40 PM 67.4°F19.7°C 47.0°F8.3°C 48% 6.9 mph W11.1 kmh W 8.1 mph13.0 kmh 30.09 in1019.0 mb - 0.00 in0.0 mm 0.05 in1.3 mm
04:50 PM 67.3°F19.6°C 46.9°F8.3°C 48% 4.6 mph WNW7.4 kmh WNW 6.9 mph11.1 kmh 30.09 in1019.0 mb - 0.00 in0.0 mm 0.05 in1.3 mm
05:00 PM 67.6°F19.8°C 47.8°F8.8°C 49% 4.6 mph WNW7.4 kmh WNW 8.1 mph13.0 kmh 30.09 in1019.0 mb - 0.00 in0.0 mm 0.05 in1.3 mm
05:10 PM 68.6°F20.3°C 52.8°F11.6°C 57% 6.9 mph W11.1 kmh W 11.5 mph18.5 kmh 30.09 in1019.0 mb - 0.00 in0.0 mm 0.05 in1.3 mm
05:20 PM 66.9°F19.4°C 52.1°F11.2°C 59% 6.9 mph W11.1 kmh W 11.5 mph18.5 kmh 30.09 in1019.0 mb - 0.00 in0.0 mm 0.05 in1.3 mm
05:30 PM 65.4°F18.6°C 52.4°F11.3°C 63% 5.8 mph W9.3 kmh W 13.8 mph22.2 kmh 30.09 in1019.0 mb - 0.00 in0.0 mm 0.05 in1.3 mm
05:40 PM 64.8°F18.2°C 51.9°F11.1°C 63% 5.8 mph S9.3 kmh S 12.7 mph20.4 kmh 30.09 in1019.0 mb - 0.00 in0.0 mm 0.05 in1.3 mm
05:50 PM 64.5°F18.1°C 51.6°F10.9°C 63% 4.6 mph WNW7.4 kmh WNW 12.7 mph20.4 kmh 30.09 in1019.0 mb - 0.00 in0.0 mm 0.05 in1.3 mm
06:00 PM 65.5°F18.6°C 51.7°F10.9°C 61% 6.9 mph W11.1 kmh W 13.8 mph22.2 kmh 30.10 in1019.3 mb - 0.00 in0.0 mm 0.05 in1.3 mm
06:10 PM 64.8°F18.2°C 51.9°F11.1°C 63% 5.8 mph WSW9.3 kmh WSW 11.5 mph18.5 kmh 30.10 in1019.3 mb - 0.00 in0.0 mm 0.05 in1.3 mm
06:20 PM 63.4°F17.4°C 51.5°F10.8°C 65% 6.9 mph WSW11.1 kmh WSW 11.5 mph18.5 kmh 30.10 in1019.3 mb - 0.00 in0.0 mm 0.05 in1.3 mm
06:30 PM 63.5°F17.5°C 52.7°F11.5°C 68% 4.6 mph NW7.4 kmh NW 8.1 mph13.0 kmh 30.10 in1019.3 mb - 0.00 in0.0 mm 0.05 in1.3 mm
06:40 PM 63.9°F17.7°C 52.3°F11.3°C 66% 4.6 mph W7.4 kmh W 12.7 mph20.4 kmh 30.10 in1019.3 mb - 0.00 in0.0 mm 0.05 in1.3 mm
06:50 PM 63.2°F17.3°C 51.6°F10.9°C 66% 2.3 mph NW3.7 kmh NW 5.8 mph9.3 kmh 30.10 in1019.3 mb - 0.00 in0.0 mm 0.05 in1.3 mm
07:00 PM 62.2°F16.8°C 51.9°F11.1°C 69% 5.8 mph W9.3 kmh W 9.2 mph14.8 kmh 30.11 in1019.6 mb - 0.00 in0.0 mm 0.05 in1.3 mm
07:10 PM 61.8°F16.6°C 51.9°F11.1°C 70% 4.6 mph WSW7.4 kmh WSW 6.9 mph11.1 kmh 30.11 in1019.6 mb - 0.00 in0.0 mm 0.05 in1.3 mm
07:20 PM 61.1°F16.2°C 51.2°F10.7°C 70% 6.9 mph WNW11.1 kmh WNW 11.5 mph18.5 kmh 30.11 in1019.6 mb - 0.00 in0.0 mm 0.05 in1.3 mm
07:30 PM 60.7°F15.9°C 51.2°F10.7°C 71% 4.6 mph WNW7.4 kmh WNW 8.1 mph13.0 kmh 30.11 in1019.6 mb - 0.00 in0.0 mm 0.05 in1.3 mm
07:40 PM 60.5°F15.8°C 51.4°F10.8°C 72% 4.6 mph WSW7.4 kmh WSW 6.9 mph11.1 kmh 30.12 in1020.0 mb - 0.00 in0.0 mm 0.05 in1.3 mm
07:50 PM 60.0°F15.6°C 51.3°F10.7°C 73% 3.5 mph W5.6 kmh W 8.1 mph13.0 kmh 30.12 in1020.0 mb - 0.00 in0.0 mm 0.05 in1.3 mm
08:00 PM 59.6°F15.3°C 51.7°F10.9°C 75% 2.3 mph WSW3.7 kmh WSW 5.8 mph9.3 kmh 30.12 in1020.0 mb - 0.00 in0.0 mm 0.05 in1.3 mm
08:10 PM 59.3°F15.2°C 51.0°F10.6°C 74% 3.5 mph NW5.6 kmh NW 5.8 mph9.3 kmh 30.12 in1020.0 mb - 0.00 in0.0 mm 0.05 in1.3 mm
08:20 PM 59.1°F15.1°C 50.8°F10.4°C 74% 1.2 mph W1.9 kmh W 2.3 mph3.7 kmh 30.13 in1020.3 mb - 0.00 in0.0 mm 0.05 in1.3 mm
08:30 PM 58.7°F14.8°C 50.8°F10.4°C 75% 2.3 mph WNW3.7 kmh WNW 5.8 mph9.3 kmh 30.13 in1020.3 mb - 0.00 in0.0 mm 0.05 in1.3 mm
08:40 PM 58.3°F14.6°C 50.4°F10.2°C 75% Calm Calm -- 30.13 in1020.3 mb - 0.00 in0.0 mm 0.05 in1.3 mm
08:50 PM 58.1°F14.5°C 50.6°F10.3°C 76% Calm Calm -- 30.14 in1020.7 mb - 0.00 in0.0 mm 0.05 in1.3 mm
09:00 PM 57.9°F14.4°C 50.0°F10.0°C 75% 1.2 mph W1.9 kmh W 5.8 mph9.3 kmh 30.14 in1020.7 mb - 0.00 in0.0 mm 0.05 in1.3 mm
09:10 PM 57.9°F14.4°C 50.0°F10.0°C 75% 3.5 mph WNW5.6 kmh WNW 5.8 mph9.3 kmh 30.14 in1020.7 mb - 0.00 in0.0 mm 0.05 in1.3 mm
09:20 PM 57.8°F14.3°C 49.9°F9.9°C 75% 2.3 mph NW3.7 kmh NW 5.8 mph9.3 kmh 30.14 in1020.7 mb - 0.00 in0.0 mm 0.05 in1.3 mm
09:30 PM 57.6°F14.2°C 49.7°F9.8°C 75% 3.5 mph W5.6 kmh W 5.8 mph9.3 kmh 30.14 in1020.7 mb - 0.00 in0.0 mm 0.05 in1.3 mm
09:40 PM 57.5°F14.2°C 49.6°F9.8°C 75% 2.3 mph WNW3.7 kmh WNW 5.8 mph9.3 kmh 30.14 in1020.7 mb - 0.00 in0.0 mm 0.05 in1.3 mm
10:10 PM 57.7°F14.3°C 49.5°F9.7°C 74% 3.5 mph W5.6 kmh W 5.8 mph9.3 kmh 30.14 in1020.7 mb - 0.00 in0.0 mm 0.05 in1.3 mm
10:20 PM 57.6°F14.2°C 49.4°F9.7°C 74% Calm Calm 2.3 mph3.7 kmh 30.14 in1020.7 mb - 0.00 in0.0 mm 0.05 in1.3 mm
10:30 PM 56.5°F13.6°C 48.6°F9.2°C 75% Calm Calm -- 30.14 in1020.7 mb - 0.00 in0.0 mm 0.05 in1.3 mm
10:40 PM 54.6°F12.6°C 48.6°F9.2°C 80% Calm Calm -- 30.14 in1020.7 mb - 0.00 in0.0 mm 0.05 in1.3 mm
10:50 PM 53.9°F12.2°C 48.2°F9.0°C 81% Calm Calm -- 30.14 in1020.7 mb - 0.00 in0.0 mm 0.05 in1.3 mm
11:00 PM 53.2°F11.8°C 47.9°F8.8°C 82% Calm Calm -- 30.14 in1020.7 mb - 0.00 in0.0 mm 0.31 in7.9 mm
11:10 PM 52.9°F11.6°C 47.9°F8.8°C 83% Calm Calm -- 30.14 in1020.7 mb - 0.00 in0.0 mm 0.31 in7.9 mm
11:20 PM 52.6°F11.4°C 47.6°F8.7°C 83% Calm Calm -- 30.14 in1020.7 mb - 0.00 in0.0 mm 0.31 in7.9 mm
11:30 PM 52.5°F11.4°C 47.8°F8.8°C 84% Calm Calm -- 30.14 in1020.7 mb - 0.00 in0.0 mm 0.31 in7.9 mm
11:40 PM 52.3°F11.3°C 47.6°F8.7°C 84% Calm Calm -- 30.14 in1020.7 mb - 0.00 in0.0 mm 0.31 in7.9 mm
11:50 PM 51.9°F11.1°C 47.2°F8.4°C 84% Calm Calm -- 30.14 in1020.7 mb - 0.00 in0.0 mm 0.31 in7.9 mm